createdAt,value
2023-01-30T00:02:17.583Z,23.23
2023-01-30T00:07:21.802Z,19.90
2023-01-30T00:12:24.722Z,25.48
2023-01-30T00:17:27.495Z,22.65
2023-01-30T00:22:31.802Z,19.08
2023-01-30T00:27:34.567Z,24.48
2023-01-30T00:32:39.014Z,29.02
2023-01-30T00:37:43.135Z,22.42
2023-01-30T00:43:03.371Z,21.85
2023-01-30T00:48:06.770Z,21.98
2023-01-30T00:53:12.300Z,24.52
2023-01-30T00:58:15.094Z,20.65
2023-01-30T01:03:19.338Z,25.30
2023-01-30T01:08:23.524Z,26.10
2023-01-30T01:13:26.531Z,23.25
2023-01-30T01:18:29.346Z,18.95
2023-01-30T01:23:33.514Z,20.98
2023-01-30T01:28:37.596Z,23.35
2023-01-30T01:33:40.722Z,20.15
2023-01-30T01:38:44.907Z,31.17
2023-01-30T01:44:03.071Z,17.73
2023-01-30T01:49:13.587Z,22.85
2023-01-30T01:54:23.700Z,25.30
2023-01-30T01:59:31.587Z,28.42
2023-01-30T02:04:53.440Z,23.33
2023-01-30T02:09:58.459Z,23.03
2023-01-30T02:15:02.423Z,27.52
2023-01-30T02:20:16.926Z,27.80
2023-01-30T02:25:48.999Z,28.42
2023-01-30T02:31:14.299Z,24.15
2023-01-30T02:36:28.836Z,27.25
2023-01-30T02:41:37.316Z,26.23
2023-01-30T02:46:54.252Z,28.83
2023-01-30T02:52:00.147Z,20.48
2023-01-30T02:57:03.194Z,26.35
2023-01-30T03:02:23.901Z,34.03
2023-01-30T03:07:36.558Z,30.00
2023-01-30T03:17:49.594Z,29.75
2023-01-30T03:22:55.106Z,25.23
2023-01-30T03:27:58.597Z,25.15
2023-01-30T03:33:02.881Z,21.23
2023-01-30T03:38:06.073Z,24.10
2023-01-30T03:43:09.078Z,23.60
2023-01-30T03:48:14.302Z,25.95
2023-01-30T03:53:17.184Z,19.92
2023-01-30T03:58:20.158Z,19.38
2023-01-30T04:03:25.169Z,18.95
2023-01-30T04:08:31.897Z,13.10
2023-01-30T04:13:34.792Z,12.45
2023-01-30T04:18:39.018Z,17.48
2023-01-30T04:23:48.183Z,17.92
2023-01-30T04:28:50.992Z,22.80
2023-01-30T04:33:55.865Z,22.38
2023-01-30T04:38:59.242Z,20.77
2023-01-30T04:44:03.902Z,27.05
2023-01-30T04:49:08.101Z,16.52
2023-01-30T04:54:11.137Z,26.00
2023-01-30T04:59:14.046Z,18.50
2023-01-30T05:04:22.779Z,17.65
2023-01-30T05:09:25.570Z,22.73
2023-01-30T05:14:28.388Z,22.30
2023-01-30T05:19:32.785Z,17.08
2023-01-30T05:24:36.698Z,21.70
2023-01-30T05:29:39.497Z,13.45
2023-01-30T05:34:43.963Z,17.17
2023-01-30T05:39:46.767Z,18.25
2023-01-30T05:44:49.687Z,18.38
2023-01-30T05:49:53.834Z,19.23
2023-01-30T05:54:56.612Z,16.25
2023-01-30T05:59:59.437Z,15.57
2023-01-30T06:05:03.722Z,14.88
2023-01-30T06:10:07.311Z,13.60
2023-01-30T06:15:11.629Z,15.60
2023-01-30T06:20:15.889Z,9.40
2023-01-30T06:25:19.146Z,13.68
2023-01-30T06:30:22.321Z,14.88
2023-01-30T06:35:26.601Z,12.65
2023-01-30T06:40:29.434Z,9.35
2023-01-30T06:45:32.439Z,9.90
2023-01-30T06:50:37.256Z,12.77
2023-01-30T06:55:40.034Z,13.60
2023-01-30T07:00:43.931Z,10.15
2023-01-30T07:05:48.934Z,13.63
2023-01-30T07:10:51.881Z,10.60
2023-01-30T07:15:54.673Z,11.20
2023-01-30T07:20:58.823Z,9.55
2023-01-30T07:26:04.654Z,8.40
2023-01-30T07:31:07.526Z,6.20
2023-01-30T07:36:12.006Z,4.10
2023-01-30T07:41:14.805Z,4.38
2023-01-30T07:46:17.744Z,4.90
2023-01-30T07:51:21.919Z,4.03
2023-01-30T07:56:24.746Z,4.50
2023-01-30T08:01:27.591Z,3.63
2023-01-30T08:06:32.214Z,2.28
2023-01-30T08:11:35.396Z,1.70
2023-01-30T08:16:39.040Z,2.47
2023-01-30T08:21:43.249Z,2.25
2023-01-30T08:26:46.059Z,2.15
2023-01-30T08:31:48.985Z,2.50
2023-01-30T08:36:53.392Z,2.10
2023-01-30T08:41:56.167Z,2.95
2023-01-30T08:46:58.951Z,2.78
2023-01-30T08:52:03.106Z,3.28
2023-01-30T08:57:45.269Z,2.47
2023-01-30T09:02:48.086Z,2.43
2023-01-30T09:07:52.440Z,3.28
2023-01-30T09:12:55.140Z,3.08
2023-01-30T09:17:57.890Z,2.38
2023-01-30T09:23:02.531Z,2.78
2023-01-30T09:28:05.539Z,2.53
2023-01-30T09:33:08.294Z,3.22
2023-01-30T09:38:12.422Z,3.08
2023-01-30T09:43:30.130Z,3.63
2023-01-30T09:48:42.247Z,2.75
2023-01-30T09:54:04.776Z,2.97
2023-01-30T09:59:08.185Z,2.97
2023-01-30T10:04:19.672Z,4.30
2023-01-30T10:09:34.303Z,2.47
2023-01-30T10:14:56.649Z,2.47
2023-01-30T10:20:12.825Z,3.05
2023-01-30T10:25:27.738Z,4.00
2023-01-30T10:30:30.954Z,3.85
2023-01-30T10:35:37.788Z,4.25
2023-01-30T10:40:45.807Z,4.72
2023-01-30T10:45:56.981Z,2.00
2023-01-30T10:51:05.884Z,3.65
2023-01-30T10:56:19.719Z,3.50
2023-01-30T11:01:26.074Z,4.20
2023-01-30T11:06:29.130Z,3.42
2023-01-30T11:11:43.777Z,2.90
2023-01-30T11:16:49.160Z,3.20
2023-01-30T11:21:54.542Z,2.33
2023-01-30T11:27:12.525Z,3.30
2023-01-30T11:32:24.284Z,3.17
2023-01-30T11:37:33.071Z,3.50
2023-01-30T11:42:37.395Z,3.05
2023-01-30T11:47:56.652Z,3.70
2023-01-30T11:53:04.205Z,3.80
2023-01-30T11:58:10.621Z,2.05
2023-01-30T12:03:17.380Z,3.47
2023-01-30T12:08:40.529Z,3.80
2023-01-30T12:13:47.181Z,3.97
2023-01-30T12:18:57.305Z,3.08
2023-01-30T12:24:10.590Z,3.65
2023-01-30T12:29:24.910Z,2.67
2023-01-30T12:34:27.839Z,3.67
2023-01-30T12:39:42.406Z,3.42
2023-01-30T12:45:02.726Z,3.03
2023-01-30T12:50:25.052Z,1.77
2023-01-30T12:55:37.657Z,1.60
2023-01-30T13:00:54.568Z,1.08
2023-01-30T13:06:10.011Z,1.08
2023-01-30T13:11:29.163Z,1.17
2023-01-30T13:16:44.023Z,1.55
2023-01-30T13:21:55.472Z,2.97
2023-01-30T13:27:03.642Z,1.80
2023-01-30T13:32:15.857Z,1.58
2023-01-30T13:37:20.579Z,2.20
2023-01-30T13:42:32.103Z,1.77
2023-01-30T13:47:47.147Z,3.97
2023-01-30T13:52:57.507Z,1.92
2023-01-30T13:58:11.563Z,2.25
2023-01-30T14:03:31.792Z,2.70
2023-01-30T14:08:39.923Z,2.20
2023-01-30T14:13:53.612Z,1.83
2023-01-30T14:18:57.793Z,1.30
2023-01-30T14:24:02.574Z,2.15
2023-01-30T14:29:05.353Z,2.70
2023-01-30T14:34:47.255Z,2.90
2023-01-30T14:39:55.472Z,2.13
2023-01-30T14:45:06.477Z,1.65
2023-01-30T14:50:19.912Z,2.85
2023-01-30T14:55:29.389Z,2.28
2023-01-30T15:00:36.024Z,2.97
2023-01-30T15:05:44.773Z,1.98
2023-01-30T15:11:04.517Z,2.40
2023-01-30T15:16:17.304Z,2.33
2023-01-30T15:21:37.420Z,2.25
2023-01-30T15:26:52.346Z,2.58
2023-01-30T15:31:56.354Z,1.92
2023-01-30T15:36:59.602Z,2.70
2023-01-30T15:42:08.840Z,1.80
2023-01-30T15:47:23.239Z,3.08
2023-01-30T15:52:36.059Z,2.28
2023-01-30T15:57:41.296Z,2.67
2023-01-30T16:02:44.453Z,3.08
2023-01-30T16:07:49.112Z,2.15
2023-01-30T16:12:56.162Z,2.38
2023-01-30T16:18:05.554Z,3.38
2023-01-30T16:23:21.610Z,2.28
2023-01-30T16:28:28.129Z,3.65
2023-01-30T16:33:36.397Z,2.72
2023-01-30T16:38:44.270Z,3.22
2023-01-30T16:43:48.509Z,2.88
2023-01-30T16:48:52.077Z,2.22
2023-01-30T16:54:00.119Z,4.10
2023-01-30T16:59:05.189Z,4.30
2023-01-30T17:04:18.878Z,3.42
2023-01-30T17:09:51.868Z,2.85
2023-01-30T17:15:27.239Z,4.47
2023-01-30T17:20:38.987Z,5.10
2023-01-30T17:25:44.452Z,3.50
2023-01-30T17:30:49.104Z,3.78
2023-01-30T17:35:51.952Z,4.28
2023-01-30T17:40:54.695Z,3.50
2023-01-30T17:45:58.815Z,4.97
2023-01-30T17:51:01.617Z,4.40
2023-01-30T17:56:04.647Z,3.13
2023-01-30T18:01:08.758Z,2.67
2023-01-30T18:06:13.801Z,3.95
2023-01-30T18:11:17.275Z,3.92
2023-01-30T18:16:26.020Z,4.55
2023-01-30T18:21:28.862Z,3.83
2023-01-30T18:26:31.962Z,3.88
2023-01-30T18:31:36.440Z,2.97
2023-01-30T18:36:39.610Z,3.22
2023-01-30T18:41:42.427Z,4.60
2023-01-30T18:46:46.663Z,6.30
2023-01-30T18:51:49.515Z,2.83
2023-01-30T18:56:52.331Z,3.42
2023-01-30T19:01:56.494Z,3.92
2023-01-30T19:06:59.288Z,4.35
2023-01-30T19:12:15.917Z,3.33
2023-01-30T19:17:20.091Z,4.35
2023-01-30T19:22:22.939Z,3.47
2023-01-30T19:27:25.982Z,3.60
2023-01-30T19:32:30.202Z,5.18
2023-01-30T19:37:33.003Z,3.50
2023-01-30T19:42:37.468Z,3.85
2023-01-30T19:47:42.859Z,2.67
2023-01-30T19:52:45.729Z,4.65
2023-01-30T19:57:48.540Z,3.75
2023-01-30T20:02:53.296Z,2.83
2023-01-30T20:07:56.077Z,3.92
2023-01-30T20:12:58.959Z,3.45
2023-01-30T20:18:03.104Z,3.95
2023-01-30T20:23:05.865Z,3.53
2023-01-30T20:28:09.567Z,3.28
2023-01-30T20:33:13.733Z,3.42
2023-01-30T20:38:16.600Z,3.95
2023-01-30T20:43:19.450Z,3.83
2023-01-30T20:48:23.631Z,3.25
2023-01-30T20:53:26.769Z,3.85
2023-01-30T20:58:30.669Z,3.40
2023-01-30T21:03:35.158Z,4.43
2023-01-30T21:08:39.398Z,4.82
2023-01-30T21:13:42.683Z,3.83
2023-01-30T21:18:49.921Z,3.20
2023-01-30T21:23:54.887Z,3.70
2023-01-30T21:28:58.981Z,3.78
2023-01-30T21:34:03.740Z,3.63
2023-01-30T21:39:24.000Z,3.10
2023-01-30T21:44:28.632Z,3.65
2023-01-30T21:49:33.635Z,2.03
2023-01-30T21:54:36.562Z,3.65
2023-01-30T21:59:39.359Z,3.42
2023-01-30T22:04:43.844Z,2.97
2023-01-30T22:09:48.693Z,4.22
2023-01-30T22:14:51.536Z,3.10
2023-01-30T22:19:55.697Z,4.63
2023-01-30T22:24:59.593Z,3.33
2023-01-30T22:30:02.359Z,2.65
2023-01-30T22:35:07.402Z,4.68
2023-01-30T22:40:11.491Z,3.92
2023-01-30T22:45:14.352Z,2.92
2023-01-30T22:50:18.904Z,3.28
2023-01-30T22:55:22.017Z,3.70
2023-01-30T23:00:25.121Z,3.92
2023-01-30T23:05:29.201Z,3.03
2023-01-30T23:10:31.990Z,3.03
2023-01-30T23:15:36.805Z,3.53
2023-01-30T23:20:40.901Z,2.97
2023-01-30T23:25:43.801Z,5.05
2023-01-30T23:30:46.639Z,3.05
2023-01-30T23:35:50.812Z,2.40
2023-01-30T23:40:53.704Z,5.10
2023-01-30T23:45:57.909Z,4.45
2023-01-30T23:51:03.249Z,2.95
2023-01-30T23:56:07.689Z,2.30
